createdAt,value
2018-05-24T00:05:13.901Z,8.47
2018-05-24T00:11:08.909Z,11.57
2018-05-24T00:17:03.911Z,8.41
2018-05-24T00:22:58.884Z,10.71
2018-05-24T00:28:53.886Z,9.13
2018-05-24T00:34:48.913Z,10.41
2018-05-24T00:40:43.903Z,9.77
2018-05-24T00:46:38.916Z,7.8
2018-05-24T00:52:33.923Z,9.82
2018-05-24T00:58:28.932Z,8.82
2018-05-24T01:04:23.993Z,11.33
2018-05-24T01:10:18.933Z,12.89
2018-05-24T01:16:13.925Z,9.99
2018-05-24T01:22:08.916Z,9.19
2018-05-24T01:28:03.897Z,10.8
2018-05-24T01:33:58.908Z,11.3
2018-05-24T01:39:53.961Z,12.72
2018-05-24T01:45:48.971Z,10.48
2018-05-24T01:51:43.964Z,12.28
2018-05-24T01:57:38.920Z,12.71
2018-05-24T02:03:33.933Z,14.31
2018-05-24T02:09:28.913Z,10.78
2018-05-24T02:15:23.992Z,12.68
2018-05-24T02:21:18.961Z,19.15
2018-05-24T02:27:14.541Z,18.29
2018-05-24T02:33:08.959Z,14.05
2018-05-24T02:39:04.014Z,13.57
2018-05-24T02:44:58.977Z,11.65
2018-05-24T02:50:54.006Z,16.51
2018-05-24T02:56:48.989Z,11.07
2018-05-24T03:02:44.030Z,11.56
2018-05-24T03:08:39.054Z,19.31
2018-05-24T03:14:34.010Z,10.46
2018-05-24T03:20:29.045Z,12.73
2018-05-24T03:26:24.012Z,10.7
2018-05-24T03:32:19.022Z,9.63
2018-05-24T03:38:14.023Z,14.33
2018-05-24T03:44:08.979Z,12.11
2018-05-24T03:50:04.045Z,13.32
2018-05-24T03:55:59.027Z,9.9
2018-05-24T04:01:54.041Z,12.36
2018-05-24T04:07:49.049Z,12.96
2018-05-24T04:13:44.006Z,18.82
2018-05-24T04:19:39.027Z,9.6
2018-05-24T04:25:34.017Z,11.78
2018-05-24T04:31:29.048Z,16.58
2018-05-24T04:37:24.087Z,12.98
2018-05-24T04:43:19.145Z,15.24
2018-05-24T04:49:14.014Z,10.85
2018-05-24T04:55:09.072Z,12.87
2018-05-24T05:01:04.092Z,14.4
2018-05-24T05:06:59.392Z,14.82
2018-05-24T05:12:54.308Z,11.72
2018-05-24T05:18:49.078Z,10.98
2018-05-24T05:24:44.051Z,11.37
2018-05-24T05:30:39.157Z,14.07
2018-05-24T05:36:34.079Z,9.63
2018-05-24T05:42:29.085Z,11.81
2018-05-24T05:48:24.082Z,13.77
2018-05-24T05:54:19.149Z,14
2018-05-24T06:00:14.133Z,10.59
2018-05-24T06:06:09.097Z,12.2
2018-05-24T06:12:04.166Z,14.57
2018-05-24T06:17:59.102Z,11.16
2018-05-24T06:23:54.119Z,13.47
2018-05-24T06:29:49.124Z,12.23
2018-05-24T06:35:44.106Z,10.25
2018-05-24T06:41:39.192Z,16.27
2018-05-24T06:47:34.130Z,15.14
2018-05-24T06:53:29.106Z,11.07
2018-05-24T06:59:24.184Z,14.07
2018-05-24T07:05:19.151Z,14.74
2018-05-24T07:11:14.123Z,15.71
2018-05-24T07:17:09.172Z,18.97
2018-05-24T07:23:04.183Z,16.98
2018-05-24T07:28:59.176Z,20.4
2018-05-24T07:34:54.141Z,17.79
2018-05-24T07:40:49.144Z,15.47
2018-05-24T07:46:44.156Z,15.27
2018-05-24T07:52:39.166Z,14.49
2018-05-24T07:58:34.280Z,15.89
2018-05-24T08:04:29.161Z,13.27
2018-05-24T08:10:24.231Z,18.05
2018-05-24T08:16:19.212Z,12.77
2018-05-24T08:22:14.177Z,15.61
2018-05-24T08:28:09.170Z,11.82
2018-05-24T08:34:04.217Z,14.66
2018-05-24T08:39:59.293Z,13.41
2018-05-24T08:45:54.201Z,12.15
2018-05-24T08:51:49.232Z,10.03
2018-05-24T08:57:44.203Z,12.15
2018-05-24T09:03:39.207Z,11.98
2018-05-24T09:09:34.230Z,11.85
2018-05-24T09:15:29.216Z,13.66
2018-05-24T09:21:24.236Z,13.69
2018-05-24T09:27:19.281Z,15.65
2018-05-24T09:33:14.244Z,16.33
2018-05-24T09:39:09.295Z,12.83
2018-05-24T09:45:04.241Z,13.82
2018-05-24T09:50:59.246Z,11.8
2018-05-24T09:56:54.279Z,10.09
2018-05-24T10:02:49.267Z,13.49
2018-05-24T10:08:44.261Z,10.89
2018-05-24T10:14:39.271Z,14.65
2018-05-24T10:20:34.281Z,13.15
2018-05-24T10:26:29.282Z,13.2
2018-05-24T10:32:24.259Z,11.07
2018-05-24T10:38:19.303Z,14.43
2018-05-24T10:44:14.359Z,10.73
2018-05-24T10:50:09.305Z,10.83
2018-05-24T10:56:04.474Z,11.53
2018-05-24T11:01:59.307Z,13.1
2018-05-24T11:07:54.339Z,11.53
2018-05-24T11:13:49.354Z,11.39
2018-05-24T11:19:44.311Z,12.53
2018-05-24T11:25:39.370Z,11.55
2018-05-24T11:31:34.353Z,12.47
2018-05-24T11:37:29.319Z,15.1
2018-05-24T11:43:24.451Z,10.95
2018-05-24T11:49:19.389Z,10.32
2018-05-24T11:55:14.344Z,11.03
2018-05-24T12:01:09.381Z,12.67
2018-05-24T12:07:04.373Z,11.44
2018-05-24T12:12:59.381Z,13.17
2018-05-24T12:18:54.363Z,14.72
2018-05-24T12:24:49.362Z,11.64
2018-05-24T12:30:44.350Z,15.29
2018-05-24T12:36:39.408Z,10.89
2018-05-24T12:42:34.504Z,12.93
2018-05-24T12:48:29.409Z,9.99
2018-05-24T12:54:24.416Z,11.21
2018-05-24T13:00:19.455Z,11.81
2018-05-24T13:06:14.402Z,13.98
2018-05-24T13:12:09.419Z,11.14
2018-05-24T13:18:04.653Z,11.7
2018-05-24T13:23:59.446Z,10.27
2018-05-24T13:29:54.418Z,11.83
2018-05-24T13:35:49.506Z,14.98
2018-05-24T13:41:44.478Z,11
2018-05-24T13:47:39.473Z,11.27
2018-05-24T13:53:34.431Z,13.32
2018-05-24T13:59:29.446Z,11.61
2018-05-24T14:05:24.491Z,11.66
2018-05-24T14:11:19.458Z,11.71
2018-05-24T14:17:14.457Z,12.5
2018-05-24T14:23:09.610Z,11.33
2018-05-24T14:29:04.504Z,9.75
2018-05-24T14:34:59.520Z,8.76
2018-05-24T14:40:54.474Z,11.43
2018-05-24T14:46:49.492Z,12.2
2018-05-24T14:52:44.484Z,9.2
2018-05-24T14:58:39.500Z,11.6
2018-05-24T15:04:34.512Z,9.67
2018-05-24T15:10:29.617Z,8.94
2018-05-24T15:16:24.511Z,9.88
2018-05-24T15:22:19.517Z,10.21
2018-05-24T15:28:14.518Z,10.33
2018-05-24T15:34:09.544Z,16.15
2018-05-24T15:40:04.733Z,12.71
2018-05-24T15:45:59.543Z,12.55
2018-05-24T15:51:54.561Z,12.68
2018-05-24T15:57:49.543Z,11.38
2018-05-24T16:03:44.564Z,11
2018-05-24T16:09:39.519Z,11.49
2018-05-24T16:15:34.560Z,12.58
2018-05-24T16:21:29.557Z,11.86
2018-05-24T16:27:24.525Z,10.92
2018-05-24T16:33:19.565Z,9.45
2018-05-24T16:39:14.593Z,8.55
2018-05-24T16:45:09.811Z,8.8
2018-05-24T16:51:04.551Z,8.86
2018-05-24T16:56:59.653Z,9.3
2018-05-24T17:02:54.579Z,11.8
2018-05-24T17:08:49.590Z,11.43
2018-05-24T17:14:44.585Z,13.26
2018-05-24T17:20:39.666Z,13.12
2018-05-24T17:26:34.627Z,14.03
2018-05-24T17:32:29.614Z,19.37
2018-05-24T17:38:24.578Z,15.7
2018-05-24T17:44:19.596Z,11.02
2018-05-24T17:50:14.598Z,11.75
2018-05-24T17:56:09.612Z,12.28
2018-05-24T18:02:04.670Z,10.64
2018-05-24T18:07:59.652Z,12.96
2018-05-24T18:13:54.636Z,17.88
2018-05-24T18:19:49.620Z,15.04
2018-05-24T18:25:44.637Z,14.87
2018-05-24T18:31:39.700Z,17.09
2018-05-24T18:37:34.644Z,17.6
2018-05-24T18:43:29.658Z,16.74
2018-05-24T18:49:24.715Z,18.97
2018-05-24T18:55:19.704Z,19.59
2018-05-24T19:01:14.677Z,20.92
2018-05-24T19:07:09.783Z,18.4
2018-05-24T19:13:04.991Z,16.64
2018-05-24T19:18:59.707Z,24.51
2018-05-24T19:24:54.773Z,20.69
2018-05-24T19:30:49.685Z,17.78
2018-05-24T19:36:44.665Z,23.74
2018-05-24T19:42:39.761Z,21.91
2018-05-24T19:48:34.692Z,21.54
2018-05-24T19:54:29.686Z,23.61
2018-05-24T20:00:24.687Z,21.94
2018-05-24T20:06:19.701Z,25.26
2018-05-24T20:12:14.707Z,23.87
2018-05-24T20:18:09.758Z,22.82
2018-05-24T20:24:04.785Z,24.19
2018-05-24T20:29:59.742Z,23.07
2018-05-24T20:35:54.741Z,22.58
2018-05-24T20:41:49.728Z,22.95
2018-05-24T20:47:44.798Z,25.75
2018-05-24T20:53:39.792Z,25.52
2018-05-24T20:59:34.756Z,26.08
2018-05-24T21:05:29.736Z,25.41
2018-05-24T21:11:24.787Z,25.48
2018-05-24T21:17:19.779Z,26.06
2018-05-24T21:23:14.740Z,22.66
2018-05-24T21:29:09.776Z,24.1
2018-05-24T21:35:04.757Z,23.53
2018-05-24T21:40:59.807Z,21.47
2018-05-24T21:46:54.810Z,24.35
2018-05-24T21:52:49.798Z,21.64
2018-05-24T21:58:44.778Z,22.24
2018-05-24T22:04:39.792Z,25.74
2018-05-24T22:10:34.771Z,23.13
2018-05-24T22:16:29.860Z,25.39
2018-05-24T22:22:24.804Z,22.07
2018-05-24T22:28:19.775Z,24.08
2018-05-24T22:34:14.778Z,25.96
2018-05-24T22:40:09.896Z,26.25
2018-05-24T22:46:04.785Z,22.65
2018-05-24T22:51:59.809Z,27.53
2018-05-24T22:57:54.802Z,26.96
2018-05-24T23:03:49.830Z,26.8
2018-05-24T23:09:44.812Z,26.59
2018-05-24T23:15:39.879Z,30.39
2018-05-24T23:21:34.843Z,27.03
2018-05-24T23:27:29.860Z,29.6
2018-05-24T23:33:24.865Z,27.05
2018-05-24T23:39:19.827Z,24.06
2018-05-24T23:45:14.907Z,30.09
2018-05-24T23:51:09.828Z,35.28
2018-05-24T23:57:04.834Z,29.32
